sensor_id;sensor_type;location;lat;lon;timestamp;pressure;altitude;pressure_sealevel;temperature;humidity
38163;BME280;23977;53.078;18.248;2023-06-14T00:02:05;101580.44;;;14.74;94.40
38163;BME280;23977;53.078;18.248;2023-06-14T00:04:34;101572.06;;;14.69;95.06
38163;BME280;23977;53.078;18.248;2023-06-14T00:07:00;101551.28;;;14.55;95.31
38163;BME280;23977;53.078;18.248;2023-06-14T00:09:26;101562.19;;;14.70;94.98
38163;BME280;23977;53.078;18.248;2023-06-14T00:11:52;101562.19;;;14.70;95.09
38163;BME280;23977;53.078;18.248;2023-06-14T00:14:17;101559.69;;;14.68;95.64
38163;BME280;23977;53.078;18.248;2023-06-14T00:16:43;101558.03;;;14.67;95.79
38163;BME280;23977;53.078;18.248;2023-06-14T00:19:10;101537.88;;;14.55;95.90
38163;BME280;23977;53.078;18.248;2023-06-14T00:21:37;101537.53;;;14.58;95.70
38163;BME280;23977;53.078;18.248;2023-06-14T00:24:03;101511.09;;;14.38;95.86
38163;BME280;23977;53.078;18.248;2023-06-14T00:26:29;101554.63;;;14.98;94.78
38163;BME280;23977;53.078;18.248;2023-06-14T00:28:55;101560.66;;;14.92;94.89
38163;BME280;23977;53.078;18.248;2023-06-14T00:31:25;101515.63;;;14.54;96.02
38163;BME280;23977;53.078;18.248;2023-06-14T00:33:50;101537.53;;;14.58;96.47
38163;BME280;23977;53.078;18.248;2023-06-14T00:36:16;101542.94;;;14.66;97.11
38163;BME280;23977;53.078;18.248;2023-06-14T00:38:42;101516.28;;;14.48;97.81
38163;BME280;23977;53.078;18.248;2023-06-14T00:41:07;101516.44;;;14.47;98.20
38163;BME280;23977;53.078;18.248;2023-06-14T00:43:33;101484.63;;;14.35;98.88
38163;BME280;23977;53.078;18.248;2023-06-14T00:46:00;101528.53;;;14.67;100.00
38163;BME280;23977;53.078;18.248;2023-06-14T00:48:28;101519.13;;;14.96;100.00
38163;BME280;23977;53.078;18.248;2023-06-14T00:50:56;101482.66;;;14.54;100.00
38163;BME280;23977;53.078;18.248;2023-06-14T00:53:23;101462.06;;;14.46;100.00
38163;BME280;23977;53.078;18.248;2023-06-14T00:55:51;101520.50;;;14.67;100.00
38163;BME280;23977;53.078;18.248;2023-06-14T00:58:16;101486.19;;;14.63;100.00
38163;BME280;23977;53.078;18.248;2023-06-14T01:00:42;101521.34;;;14.76;100.00
38163;BME280;23977;53.078;18.248;2023-06-14T01:03:08;101505.09;;;14.61;100.00
38163;BME280;23977;53.078;18.248;2023-06-14T01:05:38;101524.19;;;14.66;100.00
38163;BME280;23977;53.078;18.248;2023-06-14T01:08:50;101414.16;;;13.85;100.00
38163;BME280;23977;53.078;18.248;2023-06-14T01:11:22;101481.28;;;14.09;100.00
38163;BME280;23977;53.078;18.248;2023-06-14T01:13:51;101512.94;;;14.30;100.00
38163;BME280;23977;53.078;18.248;2023-06-14T01:16:20;101507.25;;;14.33;100.00
38163;BME280;23977;53.078;18.248;2023-06-14T01:18:45;101470.56;;;14.00;100.00
38163;BME280;23977;53.078;18.248;2023-06-14T01:21:24;101513.22;;;14.10;100.00
38163;BME280;23977;53.078;18.248;2023-06-14T01:23:50;101485.94;;;13.98;100.00
38163;BME280;23977;53.078;18.248;2023-06-14T01:26:21;101485.94;;;13.90;100.00
38163;BME280;23977;53.078;18.248;2023-06-14T01:28:49;101452.44;;;13.69;100.00
38163;BME280;23977;53.078;18.248;2023-06-14T01:31:19;101501.00;;;13.99;100.00
38163;BME280;23977;53.078;18.248;2023-06-14T01:33:49;101502.03;;;14.06;100.00
38163;BME280;23977;53.078;18.248;2023-06-14T01:36:19;101470.34;;;13.85;100.00
38163;BME280;23977;53.078;18.248;2023-06-14T01:38:46;101491.97;;;13.84;100.00
38163;BME280;23977;53.078;18.248;2023-06-14T01:41:14;101473.19;;;13.67;100.00
38163;BME280;23977;53.078;18.248;2023-06-14T01:43:41;101492.63;;;13.86;100.00
38163;BME280;23977;53.078;18.248;2023-06-14T01:46:08;101461.78;;;13.65;100.00
38163;BME280;23977;53.078;18.248;2023-06-14T01:48:34;101485.25;;;13.80;100.00
38163;BME280;23977;53.078;18.248;2023-06-14T01:51:00;101489.09;;;13.85;100.00
38163;BME280;23977;53.078;18.248;2023-06-14T01:53:26;101492.97;;;13.91;100.00
38163;BME280;23977;53.078;18.248;2023-06-14T01:55:51;101485.59;;;13.93;100.00
38163;BME280;23977;53.078;18.248;2023-06-14T01:58:19;101493.63;;;13.93;100.00
38163;BME280;23977;53.078;18.248;2023-06-14T02:00:46;101491.47;;;13.97;100.00
38163;BME280;23977;53.078;18.248;2023-06-14T02:03:14;101492.97;;;13.91;100.00
38163;BME280;23977;53.078;18.248;2023-06-14T02:05:40;101483.94;;;13.84;100.00
38163;BME280;23977;53.078;18.248;2023-06-14T02:08:07;101459.81;;;13.67;100.00
38163;BME280;23977;53.078;18.248;2023-06-14T02:10:33;101488.25;;;13.85;100.00
38163;BME280;23977;53.078;18.248;2023-06-14T02:12:59;101465.03;;;13.77;100.00
38163;BME280;23977;53.078;18.248;2023-06-14T02:15:26;101494.34;;;14.20;100.00
38163;BME280;23977;53.078;18.248;2023-06-14T02:18:01;101464.16;;;13.77;100.00
38163;BME280;23977;53.078;18.248;2023-06-14T02:20:28;101491.28;;;13.90;100.00
38163;BME280;23977;53.078;18.248;2023-06-14T02:22:54;101446.72;;;13.56;100.00
38163;BME280;23977;53.078;18.248;2023-06-14T02:25:19;101451.09;;;13.65;100.00
38163;BME280;23977;53.078;18.248;2023-06-14T02:27:46;101484.28;;;13.89;100.00
38163;BME280;23977;53.078;18.248;2023-06-14T02:30:12;101458.53;;;13.96;100.00
38163;BME280;23977;53.078;18.248;2023-06-14T02:32:39;101476.91;;;13.91;100.00
38163;BME280;23977;53.078;18.248;2023-06-14T02:35:07;101473.91;;;13.86;100.00
38163;BME280;23977;53.078;18.248;2023-06-14T02:37:33;101439.38;;;13.58;100.00
38163;BME280;23977;53.078;18.248;2023-06-14T02:39:59;101463.84;;;13.80;100.00
38163;BME280;23977;53.078;18.248;2023-06-14T02:42:25;101433.03;;;13.59;100.00
38163;BME280;23977;53.078;18.248;2023-06-14T02:44:51;101451.47;;;13.95;100.00
38163;BME280;23977;53.078;18.248;2023-06-14T02:47:18;101422.03;;;13.79;100.00
38163;BME280;23977;53.078;18.248;2023-06-14T02:49:44;101442.13;;;13.99;100.00
38163;BME280;23977;53.078;18.248;2023-06-14T02:52:12;101437.41;;;13.77;100.00
38163;BME280;23977;53.078;18.248;2023-06-14T02:54:38;101465.06;;;14.10;100.00
38163;BME280;23977;53.078;18.248;2023-06-14T02:57:04;101433.75;;;13.78;100.00
38163;BME280;23977;53.078;18.248;2023-06-14T02:59:29;101432.22;;;13.83;100.00
38163;BME280;23977;53.078;18.248;2023-06-14T03:01:55;101426.34;;;13.63;100.00
38163;BME280;23977;53.078;18.248;2023-06-14T03:04:21;101455.16;;;13.78;100.00
38163;BME280;23977;53.078;18.248;2023-06-14T03:06:46;101472.03;;;13.86;100.00
38163;BME280;23977;53.078;18.248;2023-06-14T03:09:16;101461.00;;;13.81;100.00
38163;BME280;23977;53.078;18.248;2023-06-14T03:11:42;101442.63;;;13.86;100.00
38163;BME280;23977;53.078;18.248;2023-06-14T03:14:09;101464.53;;;14.06;100.00
38163;BME280;23977;53.078;18.248;2023-06-14T03:16:37;101462.03;;;13.97;100.00
38163;BME280;23977;53.078;18.248;2023-06-14T03:19:03;101424.41;;;13.98;100.00
38163;BME280;23977;53.078;18.248;2023-06-14T03:21:28;101465.19;;;14.00;100.00
38163;BME280;23977;53.078;18.248;2023-06-14T03:23:55;101467.88;;;14.00;100.00
38163;BME280;23977;53.078;18.248;2023-06-14T03:26:20;101440.09;;;13.85;100.00
38163;BME280;23977;53.078;18.248;2023-06-14T03:28:48;101417.97;;;13.58;100.00
38163;BME280;23977;53.078;18.248;2023-06-14T03:31:20;101478.06;;;13.97;100.00
38163;BME280;23977;53.078;18.248;2023-06-14T03:33:47;101455.50;;;13.99;100.00
38163;BME280;23977;53.078;18.248;2023-06-14T03:36:14;101456.97;;;13.85;100.00
38163;BME280;23977;53.078;18.248;2023-06-14T03:38:40;101471.91;;;14.04;100.00
38163;BME280;23977;53.078;18.248;2023-06-14T03:41:06;101460.69;;;13.93;100.00
38163;BME280;23977;53.078;18.248;2023-06-14T03:43:33;101487.97;;;14.04;100.00
38163;BME280;23977;53.078;18.248;2023-06-14T03:45:59;101470.72;;;13.91;100.00
38163;BME280;23977;53.078;18.248;2023-06-14T03:48:25;101487.97;;;14.04;100.00
38163;BME280;23977;53.078;18.248;2023-06-14T03:50:51;101479.47;;;14.17;100.00
38163;BME280;23977;53.078;18.248;2023-06-14T03:53:17;101488.66;;;14.31;100.00
38163;BME280;23977;53.078;18.248;2023-06-14T03:55:45;101477.09;;;14.06;100.00
38163;BME280;23977;53.078;18.248;2023-06-14T03:58:11;101485.97;;;14.06;100.00
38163;BME280;23977;53.078;18.248;2023-06-14T04:00:41;101478.25;;;14.03;100.00
38163;BME280;23977;53.078;18.248;2023-06-14T04:03:09;101448.50;;;14.06;100.00
38163;BME280;23977;53.078;18.248;2023-06-14T04:05:35;101492.53;;;14.61;100.00
38163;BME280;23977;53.078;18.248;2023-06-14T04:08:01;101504.25;;;14.44;100.00
38163;BME280;23977;53.078;18.248;2023-06-14T04:10:27;101511.75;;;14.40;100.00
38163;BME280;23977;53.078;18.248;2023-06-14T04:12:53;101505.72;;;14.22;100.00
38163;BME280;23977;53.078;18.248;2023-06-14T04:15:19;101519.78;;;14.24;100.00
38163;BME280;23977;53.078;18.248;2023-06-14T04:17:48;101444.09;;;13.73;100.00
38163;BME280;23977;53.078;18.248;2023-06-14T04:20:13;101517.94;;;14.16;100.00
38163;BME280;23977;53.078;18.248;2023-06-14T04:22:39;101497.69;;;14.05;100.00
38163;BME280;23977;53.078;18.248;2023-06-14T04:25:07;101492.66;;;14.11;100.00
38163;BME280;23977;53.078;18.248;2023-06-14T04:27:33;101507.06;;;14.34;100.00
38163;BME280;23977;53.078;18.248;2023-06-14T04:30:04;101520.16;;;14.54;100.00
38163;BME280;23977;53.078;18.248;2023-06-14T04:32:30;101488.00;;;14.54;100.00
38163;BME280;23977;53.078;18.248;2023-06-14T04:35:04;101439.44;;;14.57;100.00
38163;BME280;23977;53.078;18.248;2023-06-14T04:37:34;101471.16;;;15.17;100.00
38163;BME280;23977;53.078;18.248;2023-06-14T04:40:00;101461.28;;;15.49;100.00
38163;BME280;23977;53.078;18.248;2023-06-14T04:42:41;101498.97;;;15.96;100.00
38163;BME280;23977;53.078;18.248;2023-06-14T04:45:12;101488.84;;;16.06;100.00
38163;BME280;23977;53.078;18.248;2023-06-14T04:47:40;101490.72;;;16.20;100.00
38163;BME280;23977;53.078;18.248;2023-06-14T04:50:17;101486.56;;;16.41;100.00
38163;BME280;23977;53.078;18.248;2023-06-14T04:52:43;101455.16;;;16.18;100.00
38163;BME280;23977;53.078;18.248;2023-06-14T04:55:09;101456.81;;;16.42;100.00
38163;BME280;23977;53.078;18.248;2023-06-14T04:57:35;101458.22;;;16.53;100.00
38163;BME280;23977;53.078;18.248;2023-06-14T05:00:08;101487.06;;;16.97;100.00
38163;BME280;23977;53.078;18.248;2023-06-14T05:02:37;101501.69;;;17.39;100.00
38163;BME280;23977;53.078;18.248;2023-06-14T05:05:07;101486.59;;;17.75;100.00
38163;BME280;23977;53.078;18.248;2023-06-14T05:07:37;101510.72;;;17.98;98.85
38163;BME280;23977;53.078;18.248;2023-06-14T05:10:03;101503.56;;;18.27;94.20
38163;BME280;23977;53.078;18.248;2023-06-14T05:12:29;101485.34;;;18.07;89.65
38163;BME280;23977;53.078;18.248;2023-06-14T05:14:55;101491.97;;;17.90;87.27
38163;BME280;23977;53.078;18.248;2023-06-14T05:17:20;101506.63;;;18.02;85.76
38163;BME280;23977;53.078;18.248;2023-06-14T05:19:47;101512.28;;;18.07;83.75
38163;BME280;23977;53.078;18.248;2023-06-14T05:22:13;101491.03;;;17.98;83.51
38163;BME280;23977;53.078;18.248;2023-06-14T05:24:40;101500.06;;;18.11;83.19
38163;BME280;23977;53.078;18.248;2023-06-14T05:27:05;101499.94;;;17.98;83.50
38163;BME280;23977;53.078;18.248;2023-06-14T05:29:31;101486.09;;;17.86;86.64
38163;BME280;23977;53.078;18.248;2023-06-14T05:32:02;101478.78;;;17.95;89.99
38163;BME280;23977;53.078;18.248;2023-06-14T05:34:28;101476.06;;;18.17;92.63
38163;BME280;23977;53.078;18.248;2023-06-14T05:36:53;101466.72;;;18.34;91.05
38163;BME280;23977;53.078;18.248;2023-06-14T05:39:21;101474.44;;;18.65;89.66
38163;BME280;23977;53.078;18.248;2023-06-14T05:41:46;101468.00;;;18.95;88.40
38163;BME280;23977;53.078;18.248;2023-06-14T05:44:12;101357.06;;;18.70;84.73
38163;BME280;23977;53.078;18.248;2023-06-14T05:46:38;101411.31;;;19.30;84.36
38163;BME280;23977;53.078;18.248;2023-06-14T05:49:06;101443.81;;;19.70;81.85
38163;BME280;23977;53.078;18.248;2023-06-14T05:51:31;101483.00;;;20.01;83.06
38163;BME280;23977;53.078;18.248;2023-06-14T05:53:57;101472.19;;;20.01;79.73
38163;BME280;23977;53.078;18.248;2023-06-14T05:56:23;101424.81;;;20.11;80.92
38163;BME280;23977;53.078;18.248;2023-06-14T05:58:49;101468.03;;;20.58;76.69
38163;BME280;23977;53.078;18.248;2023-06-14T06:01:14;101470.13;;;20.36;76.35
38163;BME280;23977;53.078;18.248;2023-06-14T06:03:41;101480.16;;;20.69;75.31
38163;BME280;23977;53.078;18.248;2023-06-14T06:06:11;101484.72;;;20.42;79.14
38163;BME280;23977;53.078;18.248;2023-06-14T06:08:37;101498.03;;;20.77;76.06
38163;BME280;23977;53.078;18.248;2023-06-14T06:11:03;101476.59;;;20.55;74.60
38163;BME280;23977;53.078;18.248;2023-06-14T06:13:29;101509.06;;;20.82;74.32
38163;BME280;23977;53.078;18.248;2023-06-14T06:15:55;101499.50;;;20.73;71.50
38163;BME280;23977;53.078;18.248;2023-06-14T06:18:21;101509.69;;;20.70;73.42
38163;BME280;23977;53.078;18.248;2023-06-14T06:20:47;101478.06;;;20.64;73.26
38163;BME280;23977;53.078;18.248;2023-06-14T06:23:13;101508.00;;;20.83;73.43
38163;BME280;23977;53.078;18.248;2023-06-14T06:25:38;101496.34;;;20.89;72.35
38163;BME280;23977;53.078;18.248;2023-06-14T06:28:04;101495.94;;;20.79;74.36
38163;BME280;23977;53.078;18.248;2023-06-14T06:30:30;101498.00;;;20.57;71.88
38163;BME280;23977;53.078;18.248;2023-06-14T06:32:55;101434.97;;;19.96;72.57
38163;BME280;23977;53.078;18.248;2023-06-14T06:35:22;101472.19;;;19.94;74.55
38163;BME280;23977;53.078;18.248;2023-06-14T06:38:07;101492.09;;;19.86;77.06
38163;BME280;23977;53.078;18.248;2023-06-14T06:40:39;101505.88;;;20.18;77.05
38163;BME280;23977;53.078;18.248;2023-06-14T06:43:04;101485.91;;;19.99;78.41
38163;BME280;23977;53.078;18.248;2023-06-14T06:45:32;101493.44;;;20.17;77.92
38163;BME280;23977;53.078;18.248;2023-06-14T06:48:05;101460.09;;;19.90;78.12
38163;BME280;23977;53.078;18.248;2023-06-14T06:50:52;101417.19;;;19.53;79.40
38163;BME280;23977;53.078;18.248;2023-06-14T06:53:31;101531.69;;;20.21;78.68
38163;BME280;23977;53.078;18.248;2023-06-14T06:56:03;101523.75;;;20.12;79.09
38163;BME280;23977;53.078;18.248;2023-06-14T06:58:29;101361.00;;;19.02;79.70
38163;BME280;23977;53.078;18.248;2023-06-14T07:00:56;101321.94;;;18.91;80.38
38163;BME280;23977;53.078;18.248;2023-06-14T07:03:22;101356.97;;;18.84;81.84
38163;BME280;23977;53.078;18.248;2023-06-14T07:05:49;101445.16;;;19.26;82.79
38163;BME280;23977;53.078;18.248;2023-06-14T07:08:17;101560.25;;;19.88;81.09
38163;BME280;23977;53.078;18.248;2023-06-14T07:10:46;101352.09;;;18.38;81.54
38163;BME280;23977;53.078;18.248;2023-06-14T07:13:12;101345.31;;;18.42;82.80
38163;BME280;23977;53.078;18.248;2023-06-14T07:15:39;101462.41;;;19.38;83.38
38163;BME280;23977;53.078;18.248;2023-06-14T07:18:05;101402.00;;;19.39;81.81
38163;BME280;23977;53.078;18.248;2023-06-14T07:20:33;101312.09;;;19.32;79.97
38163;BME280;23977;53.078;18.248;2023-06-14T07:23:00;101504.47;;;20.82;78.99
38163;BME280;23977;53.078;18.248;2023-06-14T07:25:27;101510.88;;;21.01;78.01
38163;BME280;23977;53.078;18.248;2023-06-14T07:27:53;101429.56;;;20.83;76.69
38163;BME280;23977;53.078;18.248;2023-06-14T07:30:20;101524.91;;;21.64;73.37
38163;BME280;23977;53.078;18.248;2023-06-14T07:32:46;101331.03;;;21.04;70.91
38163;BME280;23977;53.078;18.248;2023-06-14T07:35:12;101327.81;;;21.59;67.35
38163;BME280;23977;53.078;18.248;2023-06-14T07:37:38;101345.75;;;22.10;66.01
38163;BME280;23977;53.078;18.248;2023-06-14T07:40:05;101435.06;;;22.74;64.61
38163;BME280;23977;53.078;18.248;2023-06-14T07:42:34;101480.56;;;23.34;62.01
38163;BME280;23977;53.078;18.248;2023-06-14T07:45:03;101294.28;;;22.47;60.70
38163;BME280;23977;53.078;18.248;2023-06-14T07:47:31;101375.13;;;23.43;59.56
38163;BME280;23977;53.078;18.248;2023-06-14T07:49:58;101455.63;;;24.16;58.48
38163;BME280;23977;53.078;18.248;2023-06-14T07:52:31;101499.66;;;25.20;56.35
38163;BME280;23977;53.078;18.248;2023-06-14T07:54:59;101500.56;;;26.57;52.89
38163;BME280;23977;53.078;18.248;2023-06-14T07:57:27;101349.88;;;27.00;47.29
38163;BME280;23977;53.078;18.248;2023-06-14T07:59:59;101489.84;;;31.34;39.68
38163;BME280;23977;53.078;18.248;2023-06-14T08:02:39;101365.69;;;31.11;36.73
38163;BME280;23977;53.078;18.248;2023-06-14T08:05:10;101448.63;;;30.27;36.67
38163;BME280;23977;53.078;18.248;2023-06-14T08:07:48;101443.84;;;27.97;41.54
38163;BME280;23977;53.078;18.248;2023-06-14T08:10:53;101309.63;;;26.07;43.58
38163;BME280;23977;53.078;18.248;2023-06-14T08:13:20;101473.63;;;25.53;45.08
38163;BME280;23977;53.078;18.248;2023-06-14T08:15:49;101329.44;;;24.06;48.18
38163;BME280;23977;53.078;18.248;2023-06-14T08:18:14;101482.31;;;24.62;50.83
38163;BME280;23977;53.078;18.248;2023-06-14T08:20:40;101464.06;;;24.62;50.54
38163;BME280;23977;53.078;18.248;2023-06-14T08:23:07;101516.94;;;24.66;49.83
38163;BME280;23977;53.078;18.248;2023-06-14T08:25:33;101516.38;;;25.11;49.98
38163;BME280;23977;53.078;18.248;2023-06-14T08:27:59;101497.50;;;25.34;48.89
38163;BME280;23977;53.078;18.248;2023-06-14T08:30:25;101486.38;;;25.64;48.20
38163;BME280;23977;53.078;18.248;2023-06-14T08:32:51;101522.72;;;26.95;44.76
38163;BME280;23977;53.078;18.248;2023-06-14T08:35:17;101507.97;;;27.57;43.48
38163;BME280;23977;53.078;18.248;2023-06-14T08:37:49;101513.44;;;28.07;42.12
38163;BME280;23977;53.078;18.248;2023-06-14T08:40:22;101522.84;;;28.21;40.01
38163;BME280;23977;53.078;18.248;2023-06-14T08:42:54;101518.22;;;28.21;39.67
38163;BME280;23977;53.078;18.248;2023-06-14T08:45:24;101498.59;;;27.09;41.51
38163;BME280;23977;53.078;18.248;2023-06-14T08:47:53;101521.75;;;26.84;41.47
38163;BME280;23977;53.078;18.248;2023-06-14T08:50:27;101512.66;;;26.62;41.48
38163;BME280;23977;53.078;18.248;2023-06-14T08:52:58;101531.22;;;25.97;43.38
38163;BME280;23977;53.078;18.248;2023-06-14T08:55:28;101530.34;;;25.27;44.65
38163;BME280;23977;53.078;18.248;2023-06-14T08:57:56;101526.44;;;24.64;45.32
38163;BME280;23977;53.078;18.248;2023-06-14T09:00:27;101538.28;;;24.27;47.26
38163;BME280;23977;53.078;18.248;2023-06-14T09:02:53;101523.75;;;23.91;47.62
38163;BME280;23977;53.078;18.248;2023-06-14T09:05:26;101534.91;;;24.01;47.89
38163;BME280;23977;53.078;18.248;2023-06-14T09:07:52;101514.91;;;23.96;49.73
38163;BME280;23977;53.078;18.248;2023-06-14T09:10:25;101509.63;;;24.13;49.08
38163;BME280;23977;53.078;18.248;2023-06-14T09:13:23;101513.72;;;24.46;49.38
38163;BME280;23977;53.078;18.248;2023-06-14T09:15:50;101519.88;;;25.24;47.14
38163;BME280;23977;53.078;18.248;2023-06-14T09:18:20;101446.84;;;25.49;45.82
38163;BME280;23977;53.078;18.248;2023-06-14T09:20:46;101475.28;;;26.28;43.64
38163;BME280;23977;53.078;18.248;2023-06-14T09:23:13;101516.34;;;26.89;42.85
38163;BME280;23977;53.078;18.248;2023-06-14T09:25:43;101515.91;;;26.98;41.48
38163;BME280;23977;53.078;18.248;2023-06-14T09:28:09;101518.50;;;26.87;41.84
38163;BME280;23977;53.078;18.248;2023-06-14T09:30:39;101508.59;;;27.92;41.11
38163;BME280;23977;53.078;18.248;2023-06-14T09:33:05;101515.22;;;28.23;40.14
38163;BME280;23977;53.078;18.248;2023-06-14T09:35:31;101488.09;;;29.75;36.10
38163;BME280;23977;53.078;18.248;2023-06-14T09:37:57;101480.50;;;30.39;35.09
38163;BME280;23977;53.078;18.248;2023-06-14T09:40:23;101487.63;;;32.55;32.24
38163;BME280;23977;53.078;18.248;2023-06-14T09:42:50;101484.28;;;34.86;29.02
38163;BME280;23977;53.078;18.248;2023-06-14T09:45:17;101443.78;;;34.35;28.72
38163;BME280;23977;53.078;18.248;2023-06-14T09:47:49;101477.81;;;35.05;27.88
38163;BME280;23977;53.078;18.248;2023-06-14T09:50:14;101476.41;;;33.24;29.94
38163;BME280;23977;53.078;18.248;2023-06-14T09:52:43;101449.25;;;32.34;30.68
38163;BME280;23977;53.078;18.248;2023-06-14T09:55:14;101489.34;;;33.66;30.13
38163;BME280;23977;53.078;18.248;2023-06-14T09:57:45;101492.13;;;32.99;29.69
38163;BME280;23977;53.078;18.248;2023-06-14T10:00:13;101489.03;;;32.23;30.46
38163;BME280;23977;53.078;18.248;2023-06-14T10:02:42;101482.63;;;30.78;32.09
38163;BME280;23977;53.078;18.248;2023-06-14T10:08:56;101500.31;;;27.59;37.92
38163;BME280;23977;53.078;18.248;2023-06-14T10:15:09;101492.78;;;26.83;39.08
38163;BME280;23977;53.078;18.248;2023-06-14T10:23:45;101467.81;;;26.57;39.36
38163;BME280;23977;53.078;18.248;2023-06-14T10:26:20;101478.97;;;27.56;39.67
38163;BME280;23977;53.078;18.248;2023-06-14T10:29:01;101466.41;;;28.10;36.78
38163;BME280;23977;53.078;18.248;2023-06-14T10:31:56;101484.16;;;28.82;36.28
38163;BME280;23977;53.078;18.248;2023-06-14T10:34:24;101471.44;;;29.08;36.25
38163;BME280;23977;53.078;18.248;2023-06-14T10:37:19;101477.66;;;29.67;35.00
38163;BME280;23977;53.078;18.248;2023-06-14T10:39:46;101471.88;;;29.43;34.69
38163;BME280;23977;53.078;18.248;2023-06-14T10:42:12;101425.28;;;28.85;36.29
38163;BME280;23977;53.078;18.248;2023-06-14T10:44:47;101461.53;;;29.07;36.01
38163;BME280;23977;53.078;18.248;2023-06-14T10:47:34;101451.81;;;28.79;35.06
38163;BME280;23977;53.078;18.248;2023-06-14T10:50:10;101467.44;;;28.41;36.47
38163;BME280;23977;53.078;18.248;2023-06-14T10:52:42;101458.38;;;28.73;37.04
38163;BME280;23977;53.078;18.248;2023-06-14T10:55:18;101469.94;;;29.38;35.04
38163;BME280;23977;53.078;18.248;2023-06-14T11:00:12;101445.50;;;30.86;34.89
38163;BME280;23977;53.078;18.248;2023-06-14T11:02:49;101457.25;;;32.01;32.18
38163;BME280;23977;53.078;18.248;2023-06-14T11:05:23;101446.47;;;31.70;31.26
38163;BME280;23977;53.078;18.248;2023-06-14T11:08:16;101458.22;;;31.36;31.43
38163;BME280;23977;53.078;18.248;2023-06-14T11:10:44;101434.03;;;29.60;31.42
38163;BME280;23977;53.078;18.248;2023-06-14T11:13:15;101441.09;;;28.72;33.53
38163;BME280;23977;53.078;18.248;2023-06-14T11:15:44;101445.63;;;27.59;33.94
38163;BME280;23977;53.078;18.248;2023-06-14T11:18:14;101460.41;;;27.14;36.69
38163;BME280;23977;53.078;18.248;2023-06-14T11:20:42;101460.63;;;27.52;36.98
38163;BME280;23977;53.078;18.248;2023-06-14T11:23:07;101441.28;;;27.14;35.43
38163;BME280;23977;53.078;18.248;2023-06-14T11:25:33;101455.97;;;27.52;35.47
38163;BME280;23977;53.078;18.248;2023-06-14T11:27:59;101457.41;;;27.87;34.48
38163;BME280;23977;53.078;18.248;2023-06-14T11:30:25;101443.53;;;27.66;33.95
38163;BME280;23977;53.078;18.248;2023-06-14T11:32:53;101428.81;;;27.73;32.76
38163;BME280;23977;53.078;18.248;2023-06-14T11:35:22;101450.19;;;28.40;31.05
38163;BME280;23977;53.078;18.248;2023-06-14T11:37:53;101439.00;;;28.90;30.70
38163;BME280;23977;53.078;18.248;2023-06-14T11:40:19;101449.50;;;29.08;27.52
38163;BME280;23977;53.078;18.248;2023-06-14T11:42:45;101445.41;;;29.16;27.30
38163;BME280;23977;53.078;18.248;2023-06-14T11:45:11;101438.59;;;29.19;28.20
38163;BME280;23977;53.078;18.248;2023-06-14T11:47:39;101439.75;;;29.33;27.88
38163;BME280;23977;53.078;18.248;2023-06-14T11:50:08;101451.56;;;29.44;29.25
38163;BME280;23977;53.078;18.248;2023-06-14T11:52:36;101439.53;;;28.44;31.36
38163;BME280;23977;53.078;18.248;2023-06-14T11:55:03;101350.81;;;27.10;33.04
38163;BME280;23977;53.078;18.248;2023-06-14T11:57:36;101439.81;;;27.28;33.27
38163;BME280;23977;53.078;18.248;2023-06-14T12:00:06;101430.69;;;26.39;35.46
38163;BME280;23977;53.078;18.248;2023-06-14T12:02:56;101441.66;;;25.77;37.07
38163;BME280;23977;53.078;18.248;2023-06-14T12:05:25;101445.69;;;24.81;38.31
38163;BME280;23977;53.078;18.248;2023-06-14T12:08:17;101435.44;;;24.71;37.57
38163;BME280;23977;53.078;18.248;2023-06-14T12:10:43;101429.47;;;24.51;38.46
38163;BME280;23977;53.078;18.248;2023-06-14T12:13:09;101426.31;;;24.66;38.09
38163;BME280;23977;53.078;18.248;2023-06-14T12:15:36;101437.31;;;24.59;38.97
38163;BME280;23977;53.078;18.248;2023-06-14T12:18:05;101418.25;;;24.24;39.40
38163;BME280;23977;53.078;18.248;2023-06-14T12:20:33;101426.88;;;24.09;39.42
38163;BME280;23977;53.078;18.248;2023-06-14T12:23:03;101430.97;;;23.99;40.15
38163;BME280;23977;53.078;18.248;2023-06-14T12:25:30;101435.34;;;23.89;38.38
38163;BME280;23977;53.078;18.248;2023-06-14T12:28:07;101396.63;;;23.44;38.22
38163;BME280;23977;53.078;18.248;2023-06-14T12:30:37;101392.63;;;22.98;39.05
38163;BME280;23977;53.078;18.248;2023-06-14T12:33:06;101350.34;;;22.90;38.61
38163;BME280;23977;53.078;18.248;2023-06-14T12:35:32;101435.47;;;23.33;39.31
38163;BME280;23977;53.078;18.248;2023-06-14T12:37:59;101402.81;;;23.52;38.47
38163;BME280;23977;53.078;18.248;2023-06-14T12:40:24;101437.00;;;23.71;38.92
38163;BME280;23977;53.078;18.248;2023-06-14T12:42:56;101443.00;;;23.61;39.67
38163;BME280;23977;53.078;18.248;2023-06-14T12:45:22;101351.66;;;23.00;40.61
38163;BME280;23977;53.078;18.248;2023-06-14T12:47:50;101282.06;;;22.38;40.77
38163;BME280;23977;53.078;18.248;2023-06-14T12:50:19;101357.63;;;22.71;42.33
38163;BME280;23977;53.078;18.248;2023-06-14T12:52:45;101448.22;;;23.14;43.97
38163;BME280;23977;53.078;18.248;2023-06-14T12:55:10;101442.47;;;23.04;44.44
38163;BME280;23977;53.078;18.248;2023-06-14T12:57:36;101438.97;;;22.78;45.47
38163;BME280;23977;53.078;18.248;2023-06-14T13:00:10;101378.53;;;22.27;46.52